sensor_id;sensor_type;location;lat;lon;timestamp;pressure;altitude;pressure_sealevel;temperature;humidity
48862;BME280;34681;49.188;-0.374;2022-08-01T00:01:00;101708.88;;;23.52;60.39
48862;BME280;34681;49.188;-0.374;2022-08-01T00:03:26;101707.81;;;23.53;60.60
48862;BME280;34681;49.188;-0.374;2022-08-01T00:05:51;101715.53;;;23.51;60.21
48862;BME280;34681;49.188;-0.374;2022-08-01T00:08:16;101708.63;;;23.47;61.08
48862;BME280;34681;49.188;-0.374;2022-08-01T00:10:42;101714.47;;;23.52;60.38
48862;BME280;34681;49.188;-0.374;2022-08-01T00:13:07;101714.31;;;23.61;60.66
48862;BME280;34681;49.188;-0.374;2022-08-01T00:15:32;101704.34;;;23.45;60.64
48862;BME280;34681;49.188;-0.374;2022-08-01T00:17:58;101699.00;;;23.57;60.45
48862;BME280;34681;49.188;-0.374;2022-08-01T00:20:24;101701.09;;;23.48;60.77
48862;BME280;34681;49.188;-0.374;2022-08-01T00:22:49;101702.19;;;23.47;60.21
48862;BME280;34681;49.188;-0.374;2022-08-01T00:25:15;101704.22;;;23.66;60.17
48862;BME280;34681;49.188;-0.374;2022-08-01T00:27:40;101701.97;;;23.42;60.46
48862;BME280;34681;49.188;-0.374;2022-08-01T00:30:06;101703.94;;;23.54;60.91
48862;BME280;34681;49.188;-0.374;2022-08-01T00:32:31;101705.06;;;23.60;59.99
48862;BME280;34681;49.188;-0.374;2022-08-01T00:34:57;101707.59;;;23.55;60.26
48862;BME280;34681;49.188;-0.374;2022-08-01T00:37:22;101704.13;;;23.46;60.13
48862;BME280;34681;49.188;-0.374;2022-08-01T00:39:47;101709.50;;;23.48;60.18
48862;BME280;34681;49.188;-0.374;2022-08-01T00:42:13;101703.47;;;23.44;59.99
48862;BME280;34681;49.188;-0.374;2022-08-01T00:44:39;101702.31;;;23.32;60.99
48862;BME280;34681;49.188;-0.374;2022-08-01T00:47:06;101695.53;;;23.48;60.37
48862;BME280;34681;49.188;-0.374;2022-08-01T00:49:31;101695.75;;;23.46;60.32
48862;BME280;34681;49.188;-0.374;2022-08-01T00:51:57;101696.41;;;23.55;60.17
48862;BME280;34681;49.188;-0.374;2022-08-01T00:54:24;101691.69;;;23.55;60.11
48862;BME280;34681;49.188;-0.374;2022-08-01T00:56:51;101687.38;;;23.53;59.67
48862;BME280;34681;49.188;-0.374;2022-08-01T00:59:21;101685.47;;;23.53;60.12
48862;BME280;34681;49.188;-0.374;2022-08-01T01:01:46;101689.94;;;23.48;60.72
48862;BME280;34681;49.188;-0.374;2022-08-01T01:04:12;101682.16;;;23.37;60.41
48862;BME280;34681;49.188;-0.374;2022-08-01T01:09:44;101685.81;;;23.37;60.66
48862;BME280;34681;49.188;-0.374;2022-08-01T01:15:12;101679.56;;;23.29;61.03
48862;BME280;34681;49.188;-0.374;2022-08-01T01:18:06;101676.13;;;23.26;60.57
48862;BME280;34681;49.188;-0.374;2022-08-01T01:20:41;101683.81;;;23.24;61.03
48862;BME280;34681;49.188;-0.374;2022-08-01T01:29:17;101680.59;;;23.21;61.52
48862;BME280;34681;49.188;-0.374;2022-08-01T01:31:49;101675.66;;;23.23;61.18
48862;BME280;34681;49.188;-0.374;2022-08-01T01:34:18;101674.63;;;23.31;60.71
48862;BME280;34681;49.188;-0.374;2022-08-01T01:36:46;101681.09;;;23.38;60.71
48862;BME280;34681;49.188;-0.374;2022-08-01T01:39:13;101675.72;;;23.36;60.80
48862;BME280;34681;49.188;-0.374;2022-08-01T01:41:39;101676.56;;;23.30;60.64
48862;BME280;34681;49.188;-0.374;2022-08-01T01:44:05;101667.56;;;23.35;60.50
48862;BME280;34681;49.188;-0.374;2022-08-01T01:46:32;101672.53;;;23.46;60.46
48862;BME280;34681;49.188;-0.374;2022-08-01T01:48:58;101669.06;;;23.37;60.56
48862;BME280;34681;49.188;-0.374;2022-08-01T01:51:25;101660.25;;;23.34;61.04
48862;BME280;34681;49.188;-0.374;2022-08-01T01:53:53;101663.25;;;23.32;61.17
48862;BME280;34681;49.188;-0.374;2022-08-01T01:56:20;101657.31;;;23.07;61.29
48862;BME280;34681;49.188;-0.374;2022-08-01T01:58:53;101660.78;;;23.09;61.27
48862;BME280;34681;49.188;-0.374;2022-08-01T02:01:26;101656.41;;;22.93;61.62
48862;BME280;34681;49.188;-0.374;2022-08-01T02:03:55;101655.66;;;23.13;61.54
48862;BME280;34681;49.188;-0.374;2022-08-01T02:06:23;101656.13;;;23.23;61.79
48862;BME280;34681;49.188;-0.374;2022-08-01T02:08:52;101657.63;;;23.19;61.30
48862;BME280;34681;49.188;-0.374;2022-08-01T02:11:20;101655.03;;;23.17;61.87
48862;BME280;34681;49.188;-0.374;2022-08-01T02:14:01;101649.88;;;23.21;61.22
48862;BME280;34681;49.188;-0.374;2022-08-01T02:16:29;101646.00;;;23.15;61.73
48862;BME280;34681;49.188;-0.374;2022-08-01T02:18:56;101652.53;;;23.36;60.98
48862;BME280;34681;49.188;-0.374;2022-08-01T02:21:49;101650.53;;;23.23;61.08
48862;BME280;34681;49.188;-0.374;2022-08-01T02:24:37;101654.34;;;23.09;61.62
48862;BME280;34681;49.188;-0.374;2022-08-01T02:27:16;101650.25;;;23.05;61.73
48862;BME280;34681;49.188;-0.374;2022-08-01T02:29:46;101654.38;;;23.15;61.77
48862;BME280;34681;49.188;-0.374;2022-08-01T02:32:20;101644.34;;;23.27;61.13
48862;BME280;34681;49.188;-0.374;2022-08-01T02:34:49;101645.84;;;23.30;61.10
48862;BME280;34681;49.188;-0.374;2022-08-01T02:37:17;101647.41;;;23.46;60.59
48862;BME280;34681;49.188;-0.374;2022-08-01T02:39:44;101653.16;;;23.31;60.97
48862;BME280;34681;49.188;-0.374;2022-08-01T02:42:13;101642.97;;;23.17;61.59
48862;BME280;34681;49.188;-0.374;2022-08-01T02:44:41;101645.41;;;23.33;61.32
48862;BME280;34681;49.188;-0.374;2022-08-01T02:47:08;101649.06;;;23.27;61.20
48862;BME280;34681;49.188;-0.374;2022-08-01T02:49:39;101650.53;;;23.23;61.29
48862;BME280;34681;49.188;-0.374;2022-08-01T02:52:08;101640.47;;;23.29;61.02
48862;BME280;34681;49.188;-0.374;2022-08-01T02:54:36;101641.72;;;23.19;61.48
48862;BME280;34681;49.188;-0.374;2022-08-01T02:57:07;101642.84;;;23.32;61.36
48862;BME280;34681;49.188;-0.374;2022-08-01T02:59:34;101642.59;;;23.20;61.53
48862;BME280;34681;49.188;-0.374;2022-08-01T03:02:02;101634.81;;;23.09;62.09
48862;BME280;34681;49.188;-0.374;2022-08-01T03:04:30;101647.69;;;23.10;62.08
48862;BME280;34681;49.188;-0.374;2022-08-01T03:06:57;101644.47;;;23.13;61.86
48862;BME280;34681;49.188;-0.374;2022-08-01T03:09:25;101638.56;;;22.88;62.75
48862;BME280;34681;49.188;-0.374;2022-08-01T03:11:52;101648.38;;;23.18;62.03
48862;BME280;34681;49.188;-0.374;2022-08-01T03:14:20;101640.41;;;23.09;62.08
48862;BME280;34681;49.188;-0.374;2022-08-01T03:16:46;101641.03;;;23.11;62.17
48862;BME280;34681;49.188;-0.374;2022-08-01T03:19:15;101641.47;;;23.14;61.86
48862;BME280;34681;49.188;-0.374;2022-08-01T03:21:44;101639.28;;;23.03;62.56
48862;BME280;34681;49.188;-0.374;2022-08-01T03:24:10;101644.41;;;22.99;62.77
48862;BME280;34681;49.188;-0.374;2022-08-01T03:26:38;101639.50;;;23.02;62.44
48862;BME280;34681;49.188;-0.374;2022-08-01T03:29:13;101640.00;;;23.18;61.98
48862;BME280;34681;49.188;-0.374;2022-08-01T03:31:43;101640.88;;;23.19;61.98
48862;BME280;34681;49.188;-0.374;2022-08-01T03:34:10;101642.97;;;23.17;62.14
48862;BME280;34681;49.188;-0.374;2022-08-01T03:36:45;101643.66;;;23.19;61.78
48862;BME280;34681;49.188;-0.374;2022-08-01T03:39:12;101641.53;;;23.27;61.53
48862;BME280;34681;49.188;-0.374;2022-08-01T03:41:41;101635.72;;;23.22;61.79
48862;BME280;34681;49.188;-0.374;2022-08-01T03:44:14;101642.59;;;23.20;61.84
48862;BME280;34681;49.188;-0.374;2022-08-01T03:46:43;101644.66;;;23.05;62.26
48862;BME280;34681;49.188;-0.374;2022-08-01T03:49:31;101638.22;;;23.04;62.36
48862;BME280;34681;49.188;-0.374;2022-08-01T03:51:59;101633.94;;;23.02;62.47
48862;BME280;34681;49.188;-0.374;2022-08-01T03:54:29;101637.81;;;23.14;62.16
48862;BME280;34681;49.188;-0.374;2022-08-01T03:56:57;101632.25;;;23.14;62.35
48862;BME280;34681;49.188;-0.374;2022-08-01T03:59:23;101627.84;;;22.91;63.01
48862;BME280;34681;49.188;-0.374;2022-08-01T04:01:49;101628.34;;;23.08;62.60
48862;BME280;34681;49.188;-0.374;2022-08-01T04:04:15;101629.25;;;23.09;62.43
48862;BME280;34681;49.188;-0.374;2022-08-01T04:06:41;101630.09;;;23.09;62.44
48862;BME280;34681;49.188;-0.374;2022-08-01T04:09:09;101626.22;;;23.17;62.06
48862;BME280;34681;49.188;-0.374;2022-08-01T04:11:34;101634.78;;;23.02;62.48
48862;BME280;34681;49.188;-0.374;2022-08-01T04:14:00;101630.19;;;22.88;63.06
48862;BME280;34681;49.188;-0.374;2022-08-01T04:16:25;101633.94;;;23.02;62.59
48862;BME280;34681;49.188;-0.374;2022-08-01T04:18:51;101624.50;;;22.75;63.46
48862;BME280;34681;49.188;-0.374;2022-08-01T04:21:25;101624.63;;;22.88;63.29
48862;BME280;34681;49.188;-0.374;2022-08-01T04:23:56;101632.38;;;22.99;63.00
48862;BME280;34681;49.188;-0.374;2022-08-01T04:26:24;101634.53;;;22.97;62.94
48862;BME280;34681;49.188;-0.374;2022-08-01T04:28:52;101638.66;;;23.08;62.50
48862;BME280;34681;49.188;-0.374;2022-08-01T04:31:20;101638.28;;;22.83;63.69
48862;BME280;34681;49.188;-0.374;2022-08-01T04:33:49;101639.22;;;22.90;63.23
48862;BME280;34681;49.188;-0.374;2022-08-01T04:36:19;101635.59;;;22.96;63.07
48862;BME280;34681;49.188;-0.374;2022-08-01T04:38:48;101635.22;;;23.06;62.72
48862;BME280;34681;49.188;-0.374;2022-08-01T04:41:15;101630.88;;;22.96;63.39
48862;BME280;34681;49.188;-0.374;2022-08-01T04:43:42;101631.13;;;23.02;63.03
48862;BME280;34681;49.188;-0.374;2022-08-01T04:46:08;101635.16;;;22.92;63.19
48862;BME280;34681;49.188;-0.374;2022-08-01T04:48:37;101641.66;;;23.06;62.83
48862;BME280;34681;49.188;-0.374;2022-08-01T04:51:04;101638.44;;;23.03;62.92
48862;BME280;34681;49.188;-0.374;2022-08-01T04:53:29;101635.59;;;22.96;63.17
48862;BME280;34681;49.188;-0.374;2022-08-01T04:55:57;101647.63;;;22.96;63.30
48862;BME280;34681;49.188;-0.374;2022-08-01T04:58:23;101646.38;;;23.06;62.96
48862;BME280;34681;49.188;-0.374;2022-08-01T05:00:48;101645.03;;;22.95;63.36
48862;BME280;34681;49.188;-0.374;2022-08-01T05:03:13;101642.28;;;23.02;62.90
48862;BME280;34681;49.188;-0.374;2022-08-01T05:05:39;101646.16;;;23.07;62.63
48862;BME280;34681;49.188;-0.374;2022-08-01T05:08:04;101650.97;;;23.20;62.24
48862;BME280;34681;49.188;-0.374;2022-08-01T05:10:31;101649.03;;;23.20;62.50
48862;BME280;34681;49.188;-0.374;2022-08-01T05:12:56;101659.91;;;23.02;63.08
48862;BME280;34681;49.188;-0.374;2022-08-01T05:15:22;101655.66;;;23.13;62.64
48862;BME280;34681;49.188;-0.374;2022-08-01T05:17:47;101666.56;;;23.08;62.89
48862;BME280;34681;49.188;-0.374;2022-08-01T05:20:13;101665.31;;;23.10;63.05
48862;BME280;34681;49.188;-0.374;2022-08-01T05:22:39;101660.16;;;23.14;62.40
48862;BME280;34681;49.188;-0.374;2022-08-01T05:25:05;101660.75;;;23.03;63.46
48862;BME280;34681;49.188;-0.374;2022-08-01T05:27:49;101661.03;;;23.14;62.70
48862;BME280;34681;49.188;-0.374;2022-08-01T05:30:23;101656.69;;;23.05;63.18
48862;BME280;34681;49.188;-0.374;2022-08-01T05:32:49;101661.28;;;23.19;62.75
48862;BME280;34681;49.188;-0.374;2022-08-01T05:35:15;101660.81;;;23.16;62.90
48862;BME280;34681;49.188;-0.374;2022-08-01T05:37:40;101665.53;;;23.15;63.07
48862;BME280;34681;49.188;-0.374;2022-08-01T05:40:06;101665.34;;;23.23;62.78
48862;BME280;34681;49.188;-0.374;2022-08-01T05:42:31;101661.91;;;23.21;62.87
48862;BME280;34681;49.188;-0.374;2022-08-01T05:44:57;101669.44;;;23.21;63.00
48862;BME280;34681;49.188;-0.374;2022-08-01T05:47:22;101663.44;;;23.31;62.46
48862;BME280;34681;49.188;-0.374;2022-08-01T05:49:48;101662.47;;;23.51;62.34
48862;BME280;34681;49.188;-0.374;2022-08-01T05:52:13;101669.78;;;23.52;61.95
48862;BME280;34681;49.188;-0.374;2022-08-01T05:54:39;101660.31;;;23.53;62.20
48862;BME280;34681;49.188;-0.374;2022-08-01T05:57:04;101658.00;;;23.64;61.99
48862;BME280;34681;49.188;-0.374;2022-08-01T05:59:30;101660.75;;;23.57;61.76
48862;BME280;34681;49.188;-0.374;2022-08-01T06:01:56;101662.75;;;23.63;61.85
48862;BME280;34681;49.188;-0.374;2022-08-01T06:04:21;101663.63;;;23.70;61.34
48862;BME280;34681;49.188;-0.374;2022-08-01T06:06:46;101674.19;;;23.75;61.14
48862;BME280;34681;49.188;-0.374;2022-08-01T06:09:12;101661.06;;;23.75;61.18
48862;BME280;34681;49.188;-0.374;2022-08-01T06:11:37;101662.34;;;23.79;60.75
48862;BME280;34681;49.188;-0.374;2022-08-01T06:14:03;101652.69;;;23.89;60.80
48862;BME280;34681;49.188;-0.374;2022-08-01T06:16:28;101654.44;;;24.03;60.31
48862;BME280;34681;49.188;-0.374;2022-08-01T06:18:53;101663.47;;;24.18;59.63
48862;BME280;34681;49.188;-0.374;2022-08-01T06:21:19;101670.13;;;24.30;59.47
48862;BME280;34681;49.188;-0.374;2022-08-01T06:23:44;101669.94;;;24.45;59.09
48862;BME280;34681;49.188;-0.374;2022-08-01T06:26:09;101668.19;;;24.57;58.60
48862;BME280;34681;49.188;-0.374;2022-08-01T06:28:35;101678.13;;;24.60;58.53
48862;BME280;34681;49.188;-0.374;2022-08-01T06:31:01;101685.44;;;24.74;58.43
48862;BME280;34681;49.188;-0.374;2022-08-01T06:33:27;101696.59;;;24.87;57.73
48862;BME280;34681;49.188;-0.374;2022-08-01T06:35:52;101695.06;;;25.05;57.53
48862;BME280;34681;49.188;-0.374;2022-08-01T06:38:18;101693.50;;;25.15;57.25
48862;BME280;34681;49.188;-0.374;2022-08-01T06:40:43;101694.78;;;25.26;56.93
48862;BME280;34681;49.188;-0.374;2022-08-01T06:43:09;101689.63;;;25.23;56.83
48862;BME280;34681;49.188;-0.374;2022-08-01T06:45:36;101683.16;;;25.23;57.42
48862;BME280;34681;49.188;-0.374;2022-08-01T06:48:02;101689.44;;;25.11;57.75
48862;BME280;34681;49.188;-0.374;2022-08-01T06:50:27;101694.97;;;25.31;57.20
48862;BME280;34681;49.188;-0.374;2022-08-01T06:52:52;101682.03;;;25.37;56.65
48862;BME280;34681;49.188;-0.374;2022-08-01T06:55:18;101693.56;;;25.60;56.22
48862;BME280;34681;49.188;-0.374;2022-08-01T06:57:46;101691.00;;;25.59;55.71
48862;BME280;34681;49.188;-0.374;2022-08-01T07:00:12;101694.97;;;25.31;56.35
48862;BME280;34681;49.188;-0.374;2022-08-01T07:02:38;101702.38;;;24.99;57.42
48862;BME280;34681;49.188;-0.374;2022-08-01T07:05:04;101696.41;;;24.76;57.95
48862;BME280;34681;49.188;-0.374;2022-08-01T07:07:32;101693.38;;;24.77;57.70
48862;BME280;34681;49.188;-0.374;2022-08-01T07:09:57;101693.78;;;24.87;57.64
48862;BME280;34681;49.188;-0.374;2022-08-01T07:12:22;101692.28;;;24.91;57.42
48862;BME280;34681;49.188;-0.374;2022-08-01T07:14:48;101689.47;;;25.05;57.32
48862;BME280;34681;49.188;-0.374;2022-08-01T07:17:13;101687.50;;;25.12;56.93
48862;BME280;34681;49.188;-0.374;2022-08-01T07:19:38;101699.75;;;25.69;55.99
48862;BME280;34681;49.188;-0.374;2022-08-01T07:22:04;101675.88;;;26.54;54.03
48862;BME280;34681;49.188;-0.374;2022-08-01T07:24:29;101685.91;;;27.12;52.10
48862;BME280;34681;49.188;-0.374;2022-08-01T07:26:55;101693.94;;;27.27;51.05
48862;BME280;34681;49.188;-0.374;2022-08-01T07:29:23;101691.06;;;26.72;52.59
48862;BME280;34681;49.188;-0.374;2022-08-01T07:31:50;101693.88;;;26.47;53.24
48862;BME280;34681;49.188;-0.374;2022-08-01T07:34:16;101707.03;;;26.15;53.83
48862;BME280;34681;49.188;-0.374;2022-08-01T07:36:41;101702.19;;;25.97;54.03
48862;BME280;34681;49.188;-0.374;2022-08-01T07:39:07;101712.44;;;25.85;54.67
48862;BME280;34681;49.188;-0.374;2022-08-01T07:41:32;101709.91;;;25.63;54.86
48862;BME280;34681;49.188;-0.374;2022-08-01T07:43:57;101705.41;;;25.62;55.11
48862;BME280;34681;49.188;-0.374;2022-08-01T07:46:23;101698.91;;;25.68;55.24
48862;BME280;34681;49.188;-0.374;2022-08-01T07:48:48;101691.22;;;26.27;54.01
48862;BME280;34681;49.188;-0.374;2022-08-01T07:51:13;101695.94;;;26.58;52.76
48862;BME280;34681;49.188;-0.374;2022-08-01T07:53:39;101694.66;;;26.97;51.80
48862;BME280;34681;49.188;-0.374;2022-08-01T07:56:04;101705.53;;;26.94;51.79
48862;BME280;34681;49.188;-0.374;2022-08-01T07:58:31;101704.78;;;26.80;51.83
48862;BME280;34681;49.188;-0.374;2022-08-01T08:00:56;101707.50;;;27.11;51.41
48862;BME280;34681;49.188;-0.374;2022-08-01T08:03:22;101707.53;;;27.48;51.05
48862;BME280;34681;49.188;-0.374;2022-08-01T08:05:47;101705.88;;;27.22;51.11
48862;BME280;34681;49.188;-0.374;2022-08-01T08:08:12;101701.78;;;26.81;51.57
48862;BME280;34681;49.188;-0.374;2022-08-01T08:10:39;101701.19;;;26.73;51.79
48862;BME280;34681;49.188;-0.374;2022-08-01T08:13:05;101706.94;;;26.59;51.76
48862;BME280;34681;49.188;-0.374;2022-08-01T08:15:30;101713.66;;;26.58;51.77
48862;BME280;34681;49.188;-0.374;2022-08-01T08:17:55;101713.13;;;26.68;51.10
48862;BME280;34681;49.188;-0.374;2022-08-01T08:20:21;101721.41;;;27.06;50.71
48862;BME280;34681;49.188;-0.374;2022-08-01T08:22:50;101718.53;;;27.50;50.44
48862;BME280;34681;49.188;-0.374;2022-08-01T08:25:16;101718.22;;;28.18;49.23
48862;BME280;34681;49.188;-0.374;2022-08-01T08:27:41;101721.13;;;29.58;46.39
48862;BME280;34681;49.188;-0.374;2022-08-01T08:30:07;101719.91;;;30.23;43.30
48862;BME280;34681;49.188;-0.374;2022-08-01T08:32:34;101729.97;;;29.38;43.91
48862;BME280;34681;49.188;-0.374;2022-08-01T08:34:59;101738.56;;;28.73;46.02
48862;BME280;34681;49.188;-0.374;2022-08-01T08:37:25;101730.53;;;28.05;46.68
48862;BME280;34681;49.188;-0.374;2022-08-01T08:39:50;101727.69;;;27.93;46.99
48862;BME280;34681;49.188;-0.374;2022-08-01T08:42:15;101715.88;;;27.73;47.41
48862;BME280;34681;49.188;-0.374;2022-08-01T08:44:42;101723.56;;;28.38;46.70
48862;BME280;34681;49.188;-0.374;2022-08-01T08:47:11;101731.31;;;29.48;44.12
48862;BME280;34681;49.188;-0.374;2022-08-01T08:49:36;101728.88;;;29.28;44.75
48862;BME280;34681;49.188;-0.374;2022-08-01T08:52:03;101726.22;;;29.09;44.85
48862;BME280;34681;49.188;-0.374;2022-08-01T08:54:30;101728.75;;;28.76;45.06
48862;BME280;34681;49.188;-0.374;2022-08-01T08:56:58;101728.69;;;28.29;45.27
48862;BME280;34681;49.188;-0.374;2022-08-01T08:59:24;101736.59;;;27.90;45.85
48862;BME280;34681;49.188;-0.374;2022-08-01T09:01:50;101734.34;;;27.62;46.27
48862;BME280;34681;49.188;-0.374;2022-08-01T09:04:16;101730.31;;;27.58;46.29
48862;BME280;34681;49.188;-0.374;2022-08-01T09:06:42;101738.44;;;27.66;46.37
48862;BME280;34681;49.188;-0.374;2022-08-01T09:09:08;101729.38;;;27.64;45.95
48862;BME280;34681;49.188;-0.374;2022-08-01T09:11:34;101737.88;;;27.58;46.62
48862;BME280;34681;49.188;-0.374;2022-08-01T09:14:12;101745.59;;;27.62;46.62
48862;BME280;34681;49.188;-0.374;2022-08-01T09:16:41;101749.13;;;27.76;47.09
48862;BME280;34681;49.188;-0.374;2022-08-01T09:21:36;101747.97;;;28.25;45.86
48862;BME280;34681;49.188;-0.374;2022-08-01T09:24:02;101747.22;;;28.48;45.88
48862;BME280;34681;49.188;-0.374;2022-08-01T09:26:34;101748.47;;;28.64;45.16
48862;BME280;34681;49.188;-0.374;2022-08-01T09:29:03;101749.81;;;28.73;45.24
48862;BME280;34681;49.188;-0.374;2022-08-01T09:31:29;101751.69;;;29.15;45.22
48862;BME280;34681;49.188;-0.374;2022-08-01T09:33:59;101747.34;;;29.59;44.45
48862;BME280;34681;49.188;-0.374;2022-08-01T09:36:49;101748.59;;;29.40;43.39
48862;BME280;34681;49.188;-0.374;2022-08-01T09:39:20;101746.38;;;29.53;43.56
48862;BME280;34681;49.188;-0.374;2022-08-01T09:41:47;101736.31;;;29.46;43.31
48862;BME280;34681;49.188;-0.374;2022-08-01T09:44:13;101741.84;;;29.29;42.95
48862;BME280;34681;49.188;-0.374;2022-08-01T09:46:55;101749.72;;;29.27;43.81
48862;BME280;34681;49.188;-0.374;2022-08-01T09:49:31;101742.00;;;29.34;43.16
48862;BME280;34681;49.188;-0.374;2022-08-01T09:51:58;101751.41;;;29.63;43.32
48862;BME280;34681;49.188;-0.374;2022-08-01T09:54:32;101737.44;;;29.97;42.14
48862;BME280;34681;49.188;-0.374;2022-08-01T09:57:12;101739.09;;;30.09;42.51
48862;BME280;34681;49.188;-0.374;2022-08-01T09:59:41;101737.31;;;30.20;42.09
48862;BME280;34681;49.188;-0.374;2022-08-01T10:04:55;101746.63;;;29.63;43.40
48862;BME280;34681;49.188;-0.374;2022-08-01T10:07:21;101737.41;;;29.45;43.69
48862;BME280;34681;49.188;-0.374;2022-08-01T10:09:47;101735.84;;;29.37;43.85
48862;BME280;34681;49.188;-0.374;2022-08-01T10:12:16;101737.94;;;29.42;43.58
48862;BME280;34681;49.188;-0.374;2022-08-01T10:14:48;101740.50;;;29.43;42.94
48862;BME280;34681;49.188;-0.374;2022-08-01T10:17:20;101743.94;;;29.57;42.83
48862;BME280;34681;49.188;-0.374;2022-08-01T10:19:49;101733.50;;;29.57;42.81
48862;BME280;34681;49.188;-0.374;2022-08-01T10:22:22;101745.25;;;29.66;42.87
48862;BME280;34681;49.188;-0.374;2022-08-01T10:24:50;101739.13;;;29.46;42.18
48862;BME280;34681;49.188;-0.374;2022-08-01T10:27:19;101737.25;;;29.23;42.11
48862;BME280;34681;49.188;-0.374;2022-08-01T10:29:50;101734.28;;;28.94;43.90
48862;BME280;34681;49.188;-0.374;2022-08-01T10:32:17;101731.09;;;28.67;43.14
48862;BME280;34681;49.188;-0.374;2022-08-01T10:34:43;101729.72;;;28.58;43.97
48862;BME280;34681;49.188;-0.374;2022-08-01T10:37:09;101719.94;;;28.61;44.15
48862;BME280;34681;49.188;-0.374;2022-08-01T10:39:35;101718.81;;;28.50;44.64
48862;BME280;34681;49.188;-0.374;2022-08-01T10:42:04;101719.22;;;28.23;44.50
48862;BME280;34681;49.188;-0.374;2022-08-01T10:44:31;101713.44;;;28.07;44.95
48862;BME280;34681;49.188;-0.374;2022-08-01T10:47:11;101719.00;;;27.95;45.08
48862;BME280;34681;49.188;-0.374;2022-08-01T10:50:02;101722.34;;;28.04;45.14
48862;BME280;34681;49.188;-0.374;2022-08-01T10:52:29;101708.94;;;28.17;44.54
48862;BME280;34681;49.188;-0.374;2022-08-01T10:55:06;101710.78;;;28.23;44.76
48862;BME280;34681;49.188;-0.374;2022-08-01T10:57:54;101714.66;;;28.11;45.04
48862;BME280;34681;49.188;-0.374;2022-08-01T11:00:21;101716.13;;;28.13;45.10
48862;BME280;34681;49.188;-0.374;2022-08-01T11:03:07;101709.94;;;27.93;44.03
48862;BME280;34681;49.188;-0.374;2022-08-01T11:05:34;101716.91;;;27.90;45.04
48862;BME280;34681;49.188;-0.374;2022-08-01T11:08:26;101718.56;;;27.80;45.47
48862;BME280;34681;49.188;-0.374;2022-08-01T11:11:00;101715.28;;;27.83;44.63
48862;BME280;34681;49.188;-0.374;2022-08-01T11:16:36;101718.09;;;27.83;44.80
48862;BME280;34681;49.188;-0.374;2022-08-01T11:19:04;101709.19;;;27.86;45.13
48862;BME280;34681;49.188;-0.374;2022-08-01T11:27:31;101709.53;;;28.08;44.79
48862;BME280;34681;49.188;-0.374;2022-08-01T11:32:54;101708.09;;;28.28;43.92
48862;BME280;34681;49.188;-0.374;2022-08-01T11:35:24;101707.03;;;28.30;44.39
48862;BME280;34681;49.188;-0.374;2022-08-01T11:37:53;101708.09;;;28.28;44.34
48862;BME280;34681;49.188;-0.374;2022-08-01T11:42:47;101702.97;;;28.25;43.81
48862;BME280;34681;49.188;-0.374;2022-08-01T11:45:13;101703.56;;;28.16;44.19
48862;BME280;34681;49.188;-0.374;2022-08-01T11:47:48;101693.09;;;28.05;43.82
48862;BME280;34681;49.188;-0.374;2022-08-01T11:53:07;101695.03;;;27.92;44.80
48862;BME280;34681;49.188;-0.374;2022-08-01T11:55:34;101690.44;;;28.10;44.62
48862;BME280;34681;49.188;-0.374;2022-08-01T11:58:04;101696.72;;;28.23;44.45
48862;BME280;34681;49.188;-0.374;2022-08-01T12:00:31;101693.16;;;28.16;43.99
48862;BME280;34681;49.188;-0.374;2022-08-01T12:03:02;101686.41;;;28.06;43.57
48862;BME280;34681;49.188;-0.374;2022-08-01T12:05:29;101691.88;;;28.01;44.19
48862;BME280;34681;49.188;-0.374;2022-08-01T12:07:56;101695.69;;;28.06;44.17
48862;BME280;34681;49.188;-0.374;2022-08-01T12:10:24;101701.53;;;28.05;44.29
48862;BME280;34681;49.188;-0.374;2022-08-01T12:13:00;101700.06;;;28.02;43.79
48862;BME280;34681;49.188;-0.374;2022-08-01T12:15:30;101693.06;;;27.93;44.38
48862;BME280;34681;49.188;-0.374;2022-08-01T12:18:00;101690.22;;;27.81;43.93
48862;BME280;34681;49.188;-0.374;2022-08-01T12:20:31;101693.69;;;27.65;42.69
48862;BME280;34681;49.188;-0.374;2022-08-01T12:22:58;101693.47;;;27.66;44.22
48862;BME280;34681;49.188;-0.374;2022-08-01T12:25:24;101695.84;;;27.81;44.08
48862;BME280;34681;49.188;-0.374;2022-08-01T12:27:50;101696.91;;;27.98;44.17
48862;BME280;34681;49.188;-0.374;2022-08-01T12:30:21;101683.81;;;28.04;44.16
48862;BME280;34681;49.188;-0.374;2022-08-01T12:32:51;101695.91;;;28.05;44.47
48862;BME280;34681;49.188;-0.374;2022-08-01T12:35:19;101692.13;;;27.99;43.47
48862;BME280;34681;49.188;-0.374;2022-08-01T12:37:49;101699.66;;;27.87;43.03
48862;BME280;34681;49.188;-0.374;2022-08-01T12:40:17;101705.78;;;27.95;44.05
48862;BME280;34681;49.188;-0.374;2022-08-01T12:42:51;101689.31;;;27.99;45.08
48862;BME280;34681;49.188;-0.374;2022-08-01T12:45:20;101696.81;;;28.17;44.75
48862;BME280;34681;49.188;-0.374;2022-08-01T12:47:47;101690.59;;;28.26;44.77
48862;BME280;34681;49.188;-0.374;2022-08-01T12:50:15;101694.81;;;28.36;44.48
48862;BME280;34681;49.188;-0.374;2022-08-01T12:52:41;101687.97;;;28.43;43.94
48862;BME280;34681;49.188;-0.374;2022-08-01T12:57:40;101688.47;;;28.52;42.50
48862;BME280;34681;49.188;-0.374;2022-08-01T13:00:18;101687.00;;;28.49;43.38
48862;BME280;34681;49.188;-0.374;2022-08-01T13:02:46;101687.09;;;28.54;43.07
48862;BME280;34681;49.188;-0.374;2022-08-01T13:05:12;101677.56;;;28.44;43.15
48862;BME280;34681;49.188;-0.374;2022-08-01T13:07:58;101679.09;;;28.16;42.15
48862;BME280;34681;49.188;-0.374;2022-08-01T13:10:28;101681.03;;;28.16;43.48
48862;BME280;34681;49.188;-0.374;2022-08-01T13:12:58;101683.34;;;28.07;44.26
48862;BME280;34681;49.188;-0.374;2022-08-01T13:15:25;101679.53;;;28.02;45.01
48862;BME280;34681;49.188;-0.374;2022-08-01T13:17:52;101676.44;;;27.91;45.39
48862;BME280;34681;49.188;-0.374;2022-08-01T13:20:32;101678.25;;;27.86;45.58
48862;BME280;34681;49.188;-0.374;2022-08-01T13:23:15;101680.03;;;27.98;45.39